Terminal Aerodrome Forecast
Issued by NWS Amarillo, TX

Home | Current Version | Previous Version | Text Only | Print | Product List | Glossary On
Versions: 1 2 3 4 5 6 7 8 9 10 11 12 13 14 15
000
FTUS44 KAMA 302300
TAFAMA
TAF
KAMA 302330Z 3100/3124 16016KT P6SM SCT120
     FM311400 22021G29KT P6SM SCT100=

USA.gov is the U.S. government's official web portal to all federal, state and local government web resources and services.